Time,TemperatureF,DewpointF,PressureIn,WindDirection,WindDirectionDegrees,WindSpeedMPH,WindSpeedGustMPH,Humidity,HourlyPrecipIn,Conditions,Clouds,dailyrainin,SoftwareType,DateUTC
2013-01-23 00:00:00,28.3,22.0,30.27,SSW,193,0.0,0.0,77,0.00,,,0.00,VWS V14.01,2013-01-23 06:00:00,
2013-01-23 00:05:00,28.2,21.9,30.27,SSW,193,0.0,0.0,77,0.00,,,0.00,VWS V14.01,2013-01-23 06:05:00,
2013-01-23 00:10:00,28.1,22.1,30.27,SSW,192,0.0,0.0,78,0.00,,,0.00,VWS V14.01,2013-01-23 06:10:00,
2013-01-23 00:15:00,28.1,22.1,30.27,SSW,193,0.0,0.0,78,0.00,,,0.00,VWS V14.01,2013-01-23 06:15:00,
2013-01-23 00:20:00,28.2,22.2,30.27,SSW,193,0.0,0.0,78,0.00,,,0.00,VWS V14.01,2013-01-23 06:20:00,
2013-01-23 00:25:00,28.5,22.5,30.27,SSW,192,0.0,0.0,78,0.00,,,0.00,VWS V14.01,2013-01-23 06:25:00,
2013-01-23 00:30:00,28.8,22.5,30.26,SSW,192,0.0,0.0,77,0.00,,,0.00,VWS V14.01,2013-01-23 06:30:00,
2013-01-23 00:35:00,28.9,22.6,30.26,SSW,193,0.0,0.0,77,0.00,,,0.00,VWS V14.01,2013-01-23 06:35:00,
2013-01-23 00:40:00,28.7,22.4,30.26,SSW,193,0.0,0.0,77,0.00,,,0.00,VWS V14.01,2013-01-23 06:40:00,
2013-01-23 00:45:00,28.5,22.2,30.25,SSW,192,0.0,0.0,77,0.00,,,0.00,VWS V14.01,2013-01-23 06:45:00,
2013-01-23 00:50:00,28.3,22.0,30.25,SSW,193,0.0,0.0,77,0.00,,,0.00,VWS V14.01,2013-01-23 06:50:00,
2013-01-23 00:55:00,27.9,21.9,30.25,SSW,193,0.0,0.0,78,0.00,,,0.00,VWS V14.01,2013-01-23 06:55:00,
2013-01-23 01:00:00,27.6,22.0,30.25,SSW,192,0.0,0.0,79,0.00,,,0.00,VWS V14.01,2013-01-23 07:00:00,
2013-01-23 01:10:00,27.3,22.0,30.25,SSW,193,0.0,0.0,80,0.00,,,0.00,VWS V14.01,2013-01-23 07:10:00,
2013-01-23 01:15:00,27.5,22.5,30.25,SSW,193,0.0,0.0,81,0.00,,,0.00,VWS V14.01,2013-01-23 07:15:00,
2013-01-23 01:20:00,27.7,22.4,30.25,SSW,193,0.0,0.0,80,0.00,,,0.00,VWS V14.01,2013-01-23 07:20:00,
2013-01-23 01:25:00,27.8,22.4,30.25,SSW,193,0.0,0.0,80,0.00,,,0.00,VWS V14.01,2013-01-23 07:25:00,
2013-01-23 01:30:00,27.8,22.4,30.25,SSW,193,0.0,0.0,80,0.00,,,0.00,VWS V14.01,2013-01-23 07:30:00,
2013-01-23 01:35:00,27.7,22.0,30.25,SSW,193,0.0,0.0,79,0.00,,,0.00,VWS V14.01,2013-01-23 07:35:00,
2013-01-23 01:40:00,27.6,22.2,30.25,SSW,193,0.0,0.0,80,0.00,,,0.00,VWS V14.01,2013-01-23 07:40:00,
2013-01-23 01:45:00,27.8,22.7,30.25,SSW,192,0.0,0.0,81,0.00,,,0.00,VWS V14.01,2013-01-23 07:45:00,
2013-01-23 01:50:00,28.0,22.6,30.25,SSW,193,0.0,0.0,80,0.00,,,0.00,VWS V14.01,2013-01-23 07:50:00,
2013-01-23 01:55:00,28.0,22.3,30.25,SSW,192,0.0,0.0,79,0.00,,,0.00,VWS V14.01,2013-01-23 07:55:00,
2013-01-23 02:00:00,27.8,22.1,30.25,SSW,192,0.0,0.0,79,0.00,,,0.00,VWS V14.01,2013-01-23 08:00:00,
2013-01-23 02:05:00,27.5,22.1,30.25,SSW,193,0.0,0.0,80,0.00,,,0.00,VWS V14.01,2013-01-23 08:05:00,
2013-01-23 02:10:00,27.2,21.9,30.25,SSW,193,0.0,0.0,80,0.00,,,0.00,VWS V14.01,2013-01-23 08:10:00,
2013-01-23 02:15:00,27.0,22.0,30.25,SSW,193,0.0,0.0,81,0.00,,,0.00,VWS V14.01,2013-01-23 08:15:00,
2013-01-23 02:20:00,26.8,21.8,30.25,SSW,192,0.0,0.0,81,0.00,,,0.00,VWS V14.01,2013-01-23 08:20:00,
2013-01-23 02:25:00,26.9,22.1,30.25,SSW,192,0.0,0.0,82,0.00,,,0.00,VWS V14.01,2013-01-23 08:25:00,
2013-01-23 02:30:00,27.1,22.4,30.25,SSW,193,0.0,0.0,82,0.00,,,0.00,VWS V14.01,2013-01-23 08:30:00,
2013-01-23 02:35:00,27.2,22.4,30.25,SSW,192,0.0,0.0,82,0.00,,,0.00,VWS V14.01,2013-01-23 08:35:00,
2013-01-23 02:40:00,27.1,22.4,30.25,SSW,192,0.0,0.0,82,0.00,,,0.00,VWS V14.01,2013-01-23 08:40:00,
2013-01-23 02:45:00,27.0,22.5,30.25,SSW,193,0.0,0.0,83,0.00,,,0.00,VWS V14.01,2013-01-23 08:45:00,
2013-01-23 02:50:00,26.9,22.4,30.25,SSW,193,0.0,0.0,83,0.00,,,0.00,VWS V14.01,2013-01-23 08:50:00,
2013-01-23 02:55:00,27.2,23.3,30.25,SSW,193,0.0,0.0,85,0.00,,,0.00,VWS V14.01,2013-01-23 08:55:00,
2013-01-23 03:05:00,28.0,23.8,30.25,SSW,193,0.0,0.0,84,0.00,,,0.00,VWS V14.01,2013-01-23 09:05:00,
2013-01-23 03:15:00,28.1,23.9,30.24,SSW,192,0.0,0.0,84,0.00,,,0.00,VWS V14.01,2013-01-23 09:15:00,
2013-01-23 03:20:00,27.8,23.3,30.24,SSW,193,0.0,0.0,83,0.00,,,0.00,VWS V14.01,2013-01-23 09:20:00,
2013-01-23 03:30:00,27.4,23.2,30.25,SSW,193,0.0,0.0,84,0.00,,,0.00,VWS V14.01,2013-01-23 09:30:00,
2013-01-23 03:35:00,27.2,23.0,30.25,SSW,192,0.0,0.0,84,0.00,,,0.00,VWS V14.01,2013-01-23 09:35:00,
2013-01-23 03:40:00,27.2,23.3,30.25,SSW,193,0.0,0.0,85,0.00,,,0.00,VWS V14.01,2013-01-23 09:40:00,
2013-01-23 03:45:00,27.7,24.1,30.24,SSW,193,0.0,0.0,86,0.00,,,0.00,VWS V14.01,2013-01-23 09:45:00,
2013-01-23 03:50:00,27.9,24.0,30.24,SSW,192,0.0,0.0,85,0.00,,,0.00,VWS V14.01,2013-01-23 09:50:00,
2013-01-23 03:55:00,27.9,23.7,30.24,SSW,193,0.0,0.0,84,0.00,,,0.00,VWS V14.01,2013-01-23 09:55:00,
2013-01-23 04:00:00,27.8,23.9,30.24,SSW,193,0.0,0.0,85,0.00,,,0.00,VWS V14.01,2013-01-23 10:00:00,
2013-01-23 04:10:00,27.4,23.2,30.24,SSW,192,0.0,0.0,84,0.00,,,0.00,VWS V14.01,2013-01-23 10:10:00,
2013-01-23 04:15:00,27.1,23.2,30.24,SSW,193,0.0,0.0,85,0.00,,,0.00,VWS V14.01,2013-01-23 10:15:00,
2013-01-23 04:20:00,27.1,23.2,30.24,SSW,193,0.0,0.0,85,0.00,,,0.00,VWS V14.01,2013-01-23 10:20:00,
2013-01-23 04:25:00,27.2,23.6,30.24,SSW,193,0.0,0.0,86,0.00,,,0.00,VWS V14.01,2013-01-23 10:25:00,
2013-01-23 04:30:00,27.2,23.3,30.24,SSW,192,0.0,0.0,85,0.00,,,0.00,VWS V14.01,2013-01-23 10:30:00,
2013-01-23 04:35:00,27.2,23.3,30.24,SSW,193,0.0,0.0,85,0.00,,,0.00,VWS V14.01,2013-01-23 10:35:00,
2013-01-23 04:40:00,27.0,23.1,30.24,SSW,193,0.0,0.0,85,0.00,,,0.00,VWS V14.01,2013-01-23 10:40:00,
2013-01-23 04:45:00,27.2,23.6,30.23,SSW,192,0.0,0.0,86,0.00,,,0.00,VWS V14.01,2013-01-23 10:45:00,
2013-01-23 04:50:00,27.5,23.9,30.23,SSW,192,0.0,0.0,86,0.00,,,0.00,VWS V14.01,2013-01-23 10:50:00,
2013-01-23 04:55:00,27.7,24.1,30.23,SSW,193,0.0,0.0,86,0.00,,,0.00,VWS V14.01,2013-01-23 10:55:00,
2013-01-23 05:00:00,27.8,23.9,30.23,SSW,193,0.0,0.0,85,0.00,,,0.00,VWS V14.01,2013-01-23 11:00:00,
2013-01-23 05:10:00,27.4,23.5,30.23,SSW,193,0.0,0.0,85,0.00,,,0.00,VWS V14.01,2013-01-23 11:10:00,
2013-01-23 05:20:00,27.4,23.5,30.24,SSW,193,0.0,0.0,85,0.00,,,0.00,VWS V14.01,2013-01-23 11:20:00,
2013-01-23 05:25:00,27.2,23.3,30.24,SSW,192,0.0,0.0,85,0.00,,,0.00,VWS V14.01,2013-01-23 11:25:00,
2013-01-23 05:30:00,27.0,23.1,30.24,SSW,193,0.0,0.0,85,0.00,,,0.00,VWS V14.01,2013-01-23 11:30:00,
2013-01-23 05:40:00,27.4,24.0,30.24,SSW,193,0.0,0.0,87,0.00,,,0.00,VWS V14.01,2013-01-23 11:40:00,
2013-01-23 05:45:00,27.7,24.3,30.24,SSW,192,0.0,0.0,87,0.00,,,0.00,VWS V14.01,2013-01-23 11:45:00,
2013-01-23 05:50:00,28.1,24.7,30.24,SSW,193,0.0,0.0,87,0.00,,,0.00,VWS V14.01,2013-01-23 11:50:00,
2013-01-23 06:00:00,28.2,24.3,30.23,SSW,192,0.0,0.0,85,0.00,,,0.00,VWS V14.01,2013-01-23 12:00:00,
2013-01-23 06:05:00,27.9,24.0,30.23,SSW,193,0.0,0.0,85,0.00,,,0.00,VWS V14.01,2013-01-23 12:05:00,
2013-01-23 06:10:00,27.5,23.6,30.23,SSW,193,0.0,0.0,85,0.00,,,0.00,VWS V14.01,2013-01-23 12:10:00,
2013-01-23 06:15:00,27.0,23.1,30.25,SSW,193,0.0,0.0,85,0.00,,,0.00,VWS V14.01,2013-01-23 12:15:00,
2013-01-23 06:20:00,26.7,22.8,30.25,SSW,193,0.0,0.0,85,0.00,,,0.00,VWS V14.01,2013-01-23 12:20:00,
2013-01-23 06:30:00,26.4,22.8,30.25,SSW,193,0.0,0.0,86,0.00,,,0.00,VWS V14.01,2013-01-23 12:30:00,
2013-01-23 06:35:00,26.6,23.3,30.25,SSW,192,0.0,0.0,87,0.00,,,0.00,VWS V14.01,2013-01-23 12:35:00,
2013-01-23 06:40:00,26.6,23.3,30.25,SSW,192,0.0,0.0,87,0.00,,,0.00,VWS V14.01,2013-01-23 12:40:00,
2013-01-23 06:45:00,26.8,23.7,30.25,SSW,193,0.0,0.0,88,0.00,,,0.00,VWS V14.01,2013-01-23 12:45:00,
2013-01-23 06:50:00,26.9,23.8,30.25,SSW,193,0.0,0.0,88,0.00,,,0.00,VWS V14.01,2013-01-23 12:50:00,
2013-01-23 06:55:00,26.9,23.8,30.25,SSW,192,0.0,0.0,88,0.00,,,0.00,VWS V14.01,2013-01-23 12:55:00,
2013-01-23 07:05:00,26.7,23.6,30.25,SSW,193,0.0,0.0,88,0.00,,,0.00,VWS V14.01,2013-01-23 13:05:00,
2013-01-23 07:10:00,26.7,23.6,30.25,SSW,192,0.0,0.0,88,0.00,,,0.00,VWS V14.01,2013-01-23 13:10:00,
2013-01-23 07:15:00,26.6,23.5,30.26,SSW,193,0.0,0.0,88,0.00,,,0.00,VWS V14.01,2013-01-23 13:15:00,
2013-01-23 07:20:00,26.4,23.3,30.26,SSW,192,0.0,0.0,88,0.00,,,0.00,VWS V14.01,2013-01-23 13:20:00,
2013-01-23 07:25:00,26.4,23.3,30.26,SSW,193,0.0,0.0,88,0.00,,,0.00,VWS V14.01,2013-01-23 13:25:00,
2013-01-23 07:30:00,26.4,23.6,30.26,SSW,193,0.0,0.0,89,0.00,,,0.00,VWS V14.01,2013-01-23 13:30:00,
2013-01-23 07:35:00,26.5,23.7,30.26,SSW,193,0.0,0.0,89,0.00,,,0.00,VWS V14.01,2013-01-23 13:35:00,
2013-01-23 07:45:00,26.9,24.1,30.26,SSW,193,0.0,0.0,89,0.00,,,0.00,VWS V14.01,2013-01-23 13:45:00,
2013-01-23 07:50:00,26.9,24.1,30.26,SSW,193,0.0,0.0,89,0.00,,,0.00,VWS V14.01,2013-01-23 13:50:00,
2013-01-23 07:55:00,27.0,24.2,30.26,SSW,192,0.0,0.0,89,0.00,,,0.00,VWS V14.01,2013-01-23 13:55:00,
2013-01-23 08:00:00,27.2,24.7,30.26,SSW,193,0.0,0.0,90,0.00,,,0.00,VWS V14.01,2013-01-23 14:00:00,
2013-01-23 08:10:00,27.6,25.1,30.26,SSW,192,0.0,0.0,90,0.00,,,0.00,VWS V14.01,2013-01-23 14:10:00,
2013-01-23 08:15:00,28.1,25.8,30.26,SSW,192,0.0,0.0,91,0.00,,,0.00,VWS V14.01,2013-01-23 14:15:00,
2013-01-23 08:20:00,29.0,26.7,30.26,SSW,193,0.0,0.0,91,0.00,,,0.00,VWS V14.01,2013-01-23 14:20:00,
2013-01-23 08:25:00,30.0,27.7,30.26,SSW,193,0.0,0.0,91,0.00,,,0.00,VWS V14.01,2013-01-23 14:25:00,
2013-01-23 08:30:00,31.0,29.0,30.26,SSW,192,0.0,0.0,92,0.00,,,0.00,VWS V14.01,2013-01-23 14:30:00,
2013-01-23 08:40:00,32.7,30.4,30.26,SSW,193,0.0,0.0,91,0.00,,,0.00,VWS V14.01,2013-01-23 14:40:00,
2013-01-23 08:45:00,33.5,30.9,30.26,SSW,192,0.0,0.0,90,0.00,,,0.00,VWS V14.01,2013-01-23 14:45:00,
2013-01-23 08:50:00,34.4,31.8,30.26,SSW,192,0.0,0.0,90,0.00,,,0.00,VWS V14.01,2013-01-23 14:50:00,
2013-01-23 08:55:00,35.6,32.7,30.26,SSW,193,0.0,0.0,89,0.00,,,0.00,VWS V14.01,2013-01-23 14:55:00,
2013-01-23 09:00:00,36.6,33.4,30.25,SSW,193,0.0,0.0,88,0.00,,,0.00,VWS V14.01,2013-01-23 15:00:00,
2013-01-23 09:10:00,38.9,34.5,30.25,SSW,193,0.0,0.0,84,0.00,,,0.00,VWS V14.01,2013-01-23 15:10:00,
2013-01-23 09:15:00,40.0,35.0,30.25,SSW,193,0.0,0.0,82,0.00,,,0.00,VWS V14.01,2013-01-23 15:15:00,
2013-01-23 09:20:00,40.7,35.0,30.25,SSW,193,0.0,0.0,80,0.00,,,0.00,VWS V14.01,2013-01-23 15:20:00,
2013-01-23 09:25:00,41.0,35.0,30.25,SSW,192,0.0,0.0,79,0.00,,,0.00,VWS V14.01,2013-01-23 15:25:00,
2013-01-23 09:30:00,41.5,35.5,30.25,SSW,193,0.0,0.0,79,0.00,,,0.00,VWS V14.01,2013-01-23 15:30:00,
2013-01-23 09:35:00,42.4,36.0,30.25,SSW,193,0.0,0.0,78,0.00,,,0.00,VWS V14.01,2013-01-23 15:35:00,
2013-01-23 09:45:00,44.4,37.3,30.24,SSW,195,0.0,0.0,76,0.00,,,0.00,VWS V14.01,2013-01-23 15:45:00,
2013-01-23 09:55:00,45.8,38.0,30.24,SW,217,0.0,0.0,74,0.00,,,0.00,VWS V14.01,2013-01-23 15:55:00,
2013-01-23 10:00:00,46.5,38.7,30.24,SW,234,0.0,0.0,74,0.00,,,0.00,VWS V14.01,2013-01-23 16:00:00,
2013-01-23 10:05:00,47.1,38.9,30.24,SSW,212,0.0,0.0,73,0.00,,,0.00,VWS V14.01,2013-01-23 16:05:00,
2013-01-23 10:10:00,47.6,39.0,30.24,SW,220,5.0,0.0,72,0.00,,,0.00,VWS V14.01,2013-01-23 16:10:00,
2013-01-23 10:20:00,48.4,39.8,30.25,SSW,212,4.0,0.0,72,0.00,,,0.00,VWS V14.01,2013-01-23 16:20:00,
2013-01-23 10:25:00,48.8,40.2,30.25,West,269,2.0,0.0,72,0.00,,,0.00,VWS V14.01,2013-01-23 16:25:00,
2013-01-23 10:30:00,49.2,40.2,30.25,SSW,192,5.0,0.0,71,0.00,,,0.00,VWS V14.01,2013-01-23 16:30:00,
2013-01-23 10:35:00,49.5,40.1,30.25,West,259,2.0,0.0,70,0.00,,,0.00,VWS V14.01,2013-01-23 16:35:00,
2013-01-23 10:40:00,49.6,40.2,30.25,SW,231,8.0,0.0,70,0.00,,,0.00,VWS V14.01,2013-01-23 16:40:00,
2013-01-23 10:45:00,49.8,40.4,30.25,SW,232,2.0,0.0,70,0.00,,,0.00,VWS V14.01,2013-01-23 16:45:00,
2013-01-23 10:55:00,50.1,40.7,30.25,SW,230,3.0,0.0,70,0.00,,,0.00,VWS V14.01,2013-01-23 16:55:00,
2013-01-23 11:05:00,51.2,41.8,30.23,South,184,0.0,0.0,70,0.00,,,0.00,VWS V14.01,2013-01-23 17:05:00,
2013-01-23 11:15:00,52.2,42.0,30.23,WSW,245,0.0,0.0,68,0.00,,,0.00,VWS V14.01,2013-01-23 17:15:00,
2013-01-23 11:25:00,52.6,42.3,30.23,WSW,246,5.0,0.0,68,0.00,,,0.00,VWS V14.01,2013-01-23 17:25:00,
2013-01-23 11:30:00,52.7,42.5,30.23,WSW,240,5.0,0.0,68,0.00,,,0.00,VWS V14.01,2013-01-23 17:30:00,
2013-01-23 11:35:00,53.0,42.7,30.23,West,265,6.0,0.0,68,0.00,,,0.00,VWS V14.01,2013-01-23 17:35:00,
2013-01-23 11:40:00,53.2,42.9,30.23,West,260,4.0,0.0,68,0.00,,,0.00,VWS V14.01,2013-01-23 17:40:00,
2013-01-23 11:45:00,53.5,42.8,30.21,SW,221,2.0,0.0,67,0.00,,,0.00,VWS V14.01,2013-01-23 17:45:00,
2013-01-23 11:50:00,53.7,43.0,30.21,SSW,209,0.0,0.0,67,0.00,,,0.00,VWS V14.01,2013-01-23 17:50:00,
2013-01-23 11:55:00,54.2,42.7,30.21,SW,234,0.0,0.0,65,0.00,,,0.00,VWS V14.01,2013-01-23 17:55:00,
2013-01-23 12:00:00,54.7,43.6,30.20,WSW,244,0.0,0.0,66,0.00,,,0.00,VWS V14.01,2013-01-23 18:00:00,
2013-01-23 12:05:00,55.2,43.7,30.20,SW,229,0.0,0.0,65,0.00,,,0.00,VWS V14.01,2013-01-23 18:05:00,
2013-01-23 12:10:00,55.4,43.8,30.20,SW,230,6.0,0.0,65,0.00,,,0.00,VWS V14.01,2013-01-23 18:10:00,
2013-01-23 12:15:00,55.7,43.7,30.18,West,273,0.0,0.0,64,0.00,,,0.00,VWS V14.01,2013-01-23 18:15:00,
2013-01-23 12:25:00,56.2,44.2,30.18,West,261,2.0,0.0,64,0.00,,,0.00,VWS V14.01,2013-01-23 18:25:00,
2013-01-23 12:30:00,56.2,44.2,30.18,WSW,244,2.0,0.0,64,0.00,,,0.00,VWS V14.01,2013-01-23 18:30:00,
2013-01-23 12:35:00,56.6,44.2,30.18,WSW,250,3.0,0.0,63,0.00,,,0.00,VWS V14.01,2013-01-23 18:35:00,
2013-01-23 12:40:00,56.9,44.9,30.18,SSW,195,7.0,0.0,64,0.00,,,0.00,VWS V14.01,2013-01-23 18:40:00,
2013-01-23 12:45:00,57.0,44.1,30.17,SW,236,1.0,0.0,62,0.00,,,0.00,VWS V14.01,2013-01-23 18:45:00,
2013-01-23 12:50:00,57.1,44.6,30.17,SW,227,6.0,0.0,63,0.00,,,0.00,VWS V14.01,2013-01-23 18:50:00,
2013-01-23 13:00:00,57.4,44.1,30.16,WSW,241,2.0,0.0,61,0.00,,,0.00,VWS V14.01,2013-01-23 19:00:00,
2013-01-23 13:05:00,57.6,44.3,30.16,SW,214,0.0,0.0,61,0.00,,,0.00,VWS V14.01,2013-01-23 19:05:00,
2013-01-23 13:10:00,57.7,44.4,30.16,WSW,239,0.0,0.0,61,0.00,,,0.00,VWS V14.01,2013-01-23 19:10:00,
2013-01-23 13:15:00,57.9,44.5,30.16,SSW,213,4.0,0.0,61,0.00,,,0.00,VWS V14.01,2013-01-23 19:15:00,
2013-01-23 13:20:00,58.0,44.2,30.16,WSW,238,3.0,0.0,60,0.00,,,0.00,VWS V14.01,2013-01-23 19:20:00,
2013-01-23 13:30:00,57.7,43.9,30.15,SW,214,0.0,0.0,60,0.00,,,0.00,VWS V14.01,2013-01-23 19:30:00,
2013-01-23 13:35:00,57.6,43.8,30.15,SW,228,1.0,0.0,60,0.00,,,0.00,VWS V14.01,2013-01-23 19:35:00,
2013-01-23 13:40:00,57.8,44.5,30.15,WSW,240,0.0,0.0,61,0.00,,,0.00,VWS V14.01,2013-01-23 19:40:00,
2013-01-23 13:45:00,58.1,44.3,30.14,SW,217,3.0,0.0,60,0.00,,,0.00,VWS V14.01,2013-01-23 19:45:00,
2013-01-23 13:55:00,58.0,44.2,30.14,SW,223,2.0,0.0,60,0.00,,,0.00,VWS V14.01,2013-01-23 19:55:00,
2013-01-23 14:00:00,58.2,44.4,30.14,SW,230,1.0,0.0,60,0.00,,,0.00,VWS V14.01,2013-01-23 20:00:00,
2013-01-23 14:05:00,58.5,44.2,30.14,SW,226,1.0,0.0,59,0.00,,,0.00,VWS V14.01,2013-01-23 20:05:00,
2013-01-23 14:15:00,58.8,44.5,30.14,SW,236,0.0,0.0,59,0.00,,,0.00,VWS V14.01,2013-01-23 20:15:00,
2013-01-23 14:25:00,58.5,44.2,30.14,WSW,246,2.0,0.0,59,0.00,,,0.00,VWS V14.01,2013-01-23 20:25:00,
2013-01-23 14:35:00,59.0,44.3,30.14,SW,215,3.0,0.0,58,0.00,,,0.00,VWS V14.01,2013-01-23 20:35:00,
2013-01-23 14:40:00,59.2,44.5,30.14,SW,232,5.0,0.0,58,0.00,,,0.00,VWS V14.01,2013-01-23 20:40:00,
2013-01-23 14:50:00,59.5,44.3,30.14,WSW,241,1.0,0.0,57,0.00,,,0.00,VWS V14.01,2013-01-23 20:50:00,
2013-01-23 14:55:00,59.5,43.8,30.14,West,274,1.0,0.0,56,0.00,,,0.00,VWS V14.01,2013-01-23 20:55:00,
2013-01-23 15:00:00,59.8,44.1,30.14,WSW,254,1.0,0.0,56,0.00,,,0.00,VWS V14.01,2013-01-23 21:00:00,
2013-01-23 15:05:00,60.1,43.9,30.14,WSW,243,2.0,0.0,55,0.00,,,0.00,VWS V14.01,2013-01-23 21:05:00,
2013-01-23 15:10:00,60.1,43.9,30.14,West,274,0.0,0.0,55,0.00,,,0.00,VWS V14.01,2013-01-23 21:10:00,
2013-01-23 15:15:00,60.4,44.2,30.14,South,177,2.0,0.0,55,0.00,,,0.00,VWS V14.01,2013-01-23 21:15:00,
2013-01-23 15:20:00,60.4,44.2,30.14,SW,236,2.0,0.0,55,0.00,,,0.00,VWS V14.01,2013-01-23 21:20:00,
2013-01-23 15:25:00,60.5,44.3,30.14,SW,232,0.0,0.0,55,0.00,,,0.00,VWS V14.01,2013-01-23 21:25:00,
2013-01-23 15:30:00,60.8,44.5,30.14,WSW,238,0.0,0.0,55,0.00,,,0.00,VWS V14.01,2013-01-23 21:30:00,
2013-01-23 15:40:00,60.5,44.3,30.14,WSW,245,4.0,0.0,55,0.00,,,0.00,VWS V14.01,2013-01-23 21:40:00,
2013-01-23 15:45:00,60.4,43.7,30.14,WSW,252,0.0,0.0,54,0.00,,,0.00,VWS V14.01,2013-01-23 21:45:00,
2013-01-23 15:50:00,60.4,44.2,30.14,SW,228,0.0,0.0,55,0.00,,,0.00,VWS V14.01,2013-01-23 21:50:00,
2013-01-23 15:55:00,60.8,44.5,30.14,WSW,252,0.0,0.0,55,0.00,,,0.00,VWS V14.01,2013-01-23 21:55:00,
2013-01-23 16:00:00,61.2,44.0,30.14,West,277,2.0,0.0,53,0.00,,,0.00,VWS V14.01,2013-01-23 22:00:00,
2013-01-23 16:10:00,61.3,44.0,30.14,West,264,1.0,0.0,53,0.00,,,0.00,VWS V14.01,2013-01-23 22:10:00,
2013-01-23 16:15:00,61.2,43.5,30.14,WSW,249,0.0,0.0,52,0.00,,,0.00,VWS V14.01,2013-01-23 22:15:00,
2013-01-23 16:20:00,60.9,43.7,30.14,WSW,254,0.0,0.0,53,0.00,,,0.00,VWS V14.01,2013-01-23 22:20:00,
2013-01-23 16:25:00,60.5,43.3,30.14,SW,232,0.0,0.0,53,0.00,,,0.00,VWS V14.01,2013-01-23 22:25:00,
2013-01-23 16:30:00,59.9,42.7,30.14,WSW,240,1.0,0.0,53,0.00,,,0.00,VWS V14.01,2013-01-23 22:30:00,
2013-01-23 16:40:00,59.0,42.9,30.14,SW,236,1.0,0.0,55,0.00,,,0.00,VWS V14.01,2013-01-23 22:40:00,
2013-01-23 16:45:00,59.0,42.9,30.13,WSW,244,0.0,0.0,55,0.00,,,0.00,VWS V14.01,2013-01-23 22:45:00,
2013-01-23 16:50:00,59.0,42.9,30.13,WSW,252,0.0,0.0,55,0.00,,,0.00,VWS V14.01,2013-01-23 22:50:00,
2013-01-23 16:55:00,59.0,42.9,30.13,WSW,253,0.0,0.0,55,0.00,,,0.00,VWS V14.01,2013-01-23 22:55:00,
2013-01-23 17:05:00,58.6,42.5,30.13,West,270,0.0,0.0,55,0.00,,,0.00,VWS V14.01,2013-01-23 23:05:00,
2013-01-23 17:10:00,58.4,42.3,30.13,SW,231,0.0,0.0,55,0.00,,,0.00,VWS V14.01,2013-01-23 23:10:00,
2013-01-23 17:20:00,57.7,42.1,30.13,SW,230,0.0,0.0,56,0.00,,,0.00,VWS V14.01,2013-01-23 23:20:00,
2013-01-23 17:25:00,57.3,42.2,30.13,SW,230,0.0,0.0,57,0.00,,,0.00,VWS V14.01,2013-01-23 23:25:00,
2013-01-23 17:30:00,56.9,41.8,30.14,SW,230,0.0,0.0,57,0.00,,,0.00,VWS V14.01,2013-01-23 23:30:00,
2013-01-23 17:40:00,55.8,42.1,30.14,SW,231,0.0,0.0,60,0.00,,,0.00,VWS V14.01,2013-01-23 23:40:00,
2013-01-23 17:45:00,55.2,41.6,30.15,SW,231,0.0,0.0,60,0.00,,,0.00,VWS V14.01,2013-01-23 23:45:00,
2013-01-23 17:50:00,54.7,41.5,30.15,SW,231,0.0,0.0,61,0.00,,,0.00,VWS V14.01,2013-01-23 23:50:00,
2013-01-23 17:55:00,54.2,41.5,30.15,SW,231,0.0,0.0,62,0.00,,,0.00,VWS V14.01,2013-01-23 23:55:00,
2013-01-23 18:00:00,53.7,41.4,30.15,SW,230,0.0,0.0,63,0.00,,,0.00,VWS V14.01,2013-01-24 00:00:00,
2013-01-23 18:10:00,52.5,40.7,30.15,SW,230,0.0,0.0,64,0.00,,,0.00,VWS V14.01,2013-01-24 00:10:00,
2013-01-23 18:15:00,52.1,41.1,30.15,SW,231,0.0,0.0,66,0.00,,,0.00,VWS V14.01,2013-01-24 00:15:00,
2013-01-23 18:20:00,51.8,41.2,30.15,SW,231,0.0,0.0,67,0.00,,,0.00,VWS V14.01,2013-01-24 00:20:00,
2013-01-23 18:25:00,51.8,41.2,30.15,SW,231,0.0,0.0,67,0.00,,,0.00,VWS V14.01,2013-01-24 00:25:00,
2013-01-23 18:35:00,51.3,41.1,30.16,SW,230,0.0,0.0,68,0.00,,,0.00,VWS V14.01,2013-01-24 00:35:00,
2013-01-23 18:40:00,50.8,40.6,30.16,SW,230,0.0,0.0,68,0.00,,,0.00,VWS V14.01,2013-01-24 00:40:00,
2013-01-23 18:45:00,50.5,40.7,30.16,SW,230,0.0,0.0,69,0.00,,,0.00,VWS V14.01,2013-01-24 00:45:00,
2013-01-23 18:50:00,50.1,40.3,30.16,SW,231,0.0,0.0,69,0.00,,,0.00,VWS V14.01,2013-01-24 00:50:00,
2013-01-23 18:55:00,49.6,40.2,30.16,SW,231,0.0,0.0,70,0.00,,,0.00,VWS V14.01,2013-01-24 00:55:00,
2013-01-23 19:05:00,48.8,40.2,30.17,SW,231,0.0,0.0,72,0.00,,,0.00,VWS V14.01,2013-01-24 01:05:00,
2013-01-23 19:15:00,47.9,39.7,30.18,SW,231,0.0,0.0,73,0.00,,,0.00,VWS V14.01,2013-01-24 01:15:00,
2013-01-23 19:25:00,47.0,38.8,30.18,SW,231,0.0,0.0,73,0.00,,,0.00,VWS V14.01,2013-01-24 01:25:00,
2013-01-23 19:30:00,46.6,39.1,30.19,SW,231,0.0,0.0,75,0.00,,,0.00,VWS V14.01,2013-01-24 01:30:00,
2013-01-23 19:35:00,46.0,38.9,30.19,SW,230,0.0,0.0,76,0.00,,,0.00,VWS V14.01,2013-01-24 01:35:00,
2013-01-23 19:40:00,45.6,39.2,30.19,SW,231,0.0,0.0,78,0.00,,,0.00,VWS V14.01,2013-01-24 01:40:00,
2013-01-23 19:45:00,45.5,39.4,30.19,SW,231,0.0,0.0,79,0.00,,,0.00,VWS V14.01,2013-01-24 01:45:00,
2013-01-23 19:55:00,45.1,39.0,30.19,SW,231,0.0,0.0,79,0.00,,,0.00,VWS V14.01,2013-01-24 01:55:00,
2013-01-23 20:00:00,44.8,38.7,30.20,SW,231,0.0,0.0,79,0.00,,,0.00,VWS V14.01,2013-01-24 02:00:00,
2013-01-23 20:05:00,44.5,38.7,30.20,SW,231,0.0,0.0,80,0.00,,,0.00,VWS V14.01,2013-01-24 02:05:00,
2013-01-23 20:15:00,44.1,38.7,30.20,SW,231,0.0,0.0,81,0.00,,,0.00,VWS V14.01,2013-01-24 02:15:00,
2013-01-23 20:20:00,43.9,38.5,30.20,SW,230,0.0,0.0,81,0.00,,,0.00,VWS V14.01,2013-01-24 02:20:00,
2013-01-23 20:25:00,43.7,38.3,30.20,SW,231,0.0,0.0,81,0.00,,,0.00,VWS V14.01,2013-01-24 02:25:00,
2013-01-23 20:30:00,43.0,37.3,30.20,SW,231,0.0,0.0,80,0.00,,,0.00,VWS V14.01,2013-01-24 02:30:00,
2013-01-23 20:35:00,42.3,36.9,30.20,SW,231,0.0,0.0,81,0.00,,,0.00,VWS V14.01,2013-01-24 02:35:00,
2013-01-23 20:45:00,41.5,36.7,30.21,SW,231,0.0,0.0,83,0.00,,,0.00,VWS V14.01,2013-01-24 02:45:00,
2013-01-23 20:55:00,41.4,36.9,30.21,SW,230,0.0,0.0,84,0.00,,,0.00,VWS V14.01,2013-01-24 02:55:00,
2013-01-23 21:05:00,41.4,37.2,30.21,WNW,299,0.0,0.0,85,0.00,,,0.00,VWS V14.01,2013-01-24 03:05:00,
2013-01-23 21:10:00,41.6,37.7,30.21,WNW,299,0.0,0.0,86,0.00,,,0.00,VWS V14.01,2013-01-24 03:10:00,
2013-01-23 21:15:00,42.0,38.1,30.20,NNW,348,0.0,0.0,86,0.00,,,0.00,VWS V14.01,2013-01-24 03:15:00,
2013-01-23 21:20:00,42.4,38.5,30.20,North,349,0.0,0.0,86,0.00,,,0.00,VWS V14.01,2013-01-24 03:20:00,
2013-01-23 21:25:00,42.8,38.6,30.20,NNW,347,0.0,0.0,85,0.00,,,0.00,VWS V14.01,2013-01-24 03:25:00,
2013-01-23 21:30:00,42.9,38.7,30.20,NNW,346,0.0,0.0,85,0.00,,,0.00,VWS V14.01,2013-01-24 03:30:00,
2013-01-23 21:35:00,42.9,38.4,30.20,NNE,17,2.0,0.0,84,0.00,,,0.00,VWS V14.01,2013-01-24 03:35:00,
2013-01-23 21:45:00,42.5,37.7,30.21,NNW,338,0.0,0.0,83,0.00,,,0.00,VWS V14.01,2013-01-24 03:45:00,
2013-01-23 21:50:00,42.3,37.8,30.21,NNW,338,0.0,0.0,84,0.00,,,0.00,VWS V14.01,2013-01-24 03:50:00,
2013-01-23 21:55:00,42.2,37.7,30.21,NNW,339,0.0,0.0,84,0.00,,,0.00,VWS V14.01,2013-01-24 03:55:00,
2013-01-23 22:00:00,42.4,37.9,30.22,NE,40,0.0,0.0,84,0.00,,,0.00,VWS V14.01,2013-01-24 04:00:00,
2013-01-23 22:10:00,43.7,38.6,30.22,NE,37,0.0,0.0,82,0.00,,,0.00,VWS V14.01,2013-01-24 04:10:00,
2013-01-23 22:20:00,44.3,38.5,30.21,North,355,0.0,0.0,80,0.00,,,0.00,VWS V14.01,2013-01-24 04:20:00,
2013-01-23 22:25:00,44.4,38.6,30.21,North,360,0.0,0.0,80,0.00,,,0.00,VWS V14.01,2013-01-24 04:25:00,
2013-01-23 22:30:00,44.4,38.3,30.22,North,360,0.0,0.0,79,0.00,,,0.00,VWS V14.01,2013-01-24 04:30:00,
2013-01-23 22:35:00,44.3,38.2,30.22,North,5,0.0,0.0,79,0.00,,,0.00,VWS V14.01,2013-01-24 04:35:00,
2013-01-23 22:40:00,44.2,38.1,30.22,North,360,0.0,0.0,79,0.00,,,0.00,VWS V14.01,2013-01-24 04:40:00,
2013-01-23 22:50:00,44.0,37.6,30.22,North,360,0.0,0.0,78,0.00,,,0.00,VWS V14.01,2013-01-24 04:50:00,
2013-01-23 22:55:00,43.9,37.5,30.22,North,360,0.0,0.0,78,0.00,,,0.00,VWS V14.01,2013-01-24 04:55:00,
2013-01-23 23:05:00,43.6,37.5,30.23,North,360,0.0,0.0,79,0.00,,,0.00,VWS V14.01,2013-01-24 05:05:00,
2013-01-23 23:10:00,43.6,37.5,30.23,North,360,0.0,0.0,79,0.00,,,0.00,VWS V14.01,2013-01-24 05:10:00,
2013-01-23 23:20:00,43.6,36.9,30.22,North,5,0.0,0.0,77,0.00,,,0.00,VWS V14.01,2013-01-24 05:20:00,
2013-01-23 23:25:00,43.7,36.3,30.22,North,360,2.0,0.0,75,0.00,,,0.00,VWS V14.01,2013-01-24 05:25:00,
2013-01-23 23:30:00,43.8,36.4,30.22,North,9,0.0,0.0,75,0.00,,,0.00,VWS V14.01,2013-01-24 05:30:00,
2013-01-23 23:40:00,43.6,35.9,30.22,North,355,0.0,0.0,74,0.00,,,0.00,VWS V14.01,2013-01-24 05:40:00,
2013-01-23 23:45:00,43.4,35.7,30.23,NNW,346,0.0,0.0,74,0.00,,,0.00,VWS V14.01,2013-01-24 05:45:00,
2013-01-23 23:50:00,43.2,35.5,30.23,North,11,0.0,0.0,74,0.00,,,0.00,VWS V14.01,2013-01-24 05:50:00,